sensor_id;sensor_type;location;lat;lon;timestamp;P1;durP1;ratioP1;P2;durP2;ratioP2
77984;SDS011;67177;47.240;-1.546;2023-03-14T00:00:48;7.45;;;1.23;;
77984;SDS011;67177;47.240;-1.546;2023-03-14T00:03:14;7.93;;;1.40;;
77984;SDS011;67177;47.240;-1.546;2023-03-14T00:05:40;9.88;;;1.60;;
77984;SDS011;67177;47.240;-1.546;2023-03-14T00:08:06;11.17;;;1.50;;
77984;SDS011;67177;47.240;-1.546;2023-03-14T00:10:31;10.83;;;1.60;;
77984;SDS011;67177;47.240;-1.546;2023-03-14T00:12:57;9.93;;;1.33;;
77984;SDS011;67177;47.240;-1.546;2023-03-14T00:15:22;11.97;;;1.57;;
77984;SDS011;67177;47.240;-1.546;2023-03-14T00:17:48;8.75;;;1.73;;
77984;SDS011;67177;47.240;-1.546;2023-03-14T00:20:14;10.80;;;1.53;;
77984;SDS011;67177;47.240;-1.546;2023-03-14T00:22:40;10.43;;;1.35;;
77984;SDS011;67177;47.240;-1.546;2023-03-14T00:25:06;6.30;;;1.10;;
77984;SDS011;67177;47.240;-1.546;2023-03-14T00:27:34;7.38;;;1.23;;
77984;SDS011;67177;47.240;-1.546;2023-03-14T00:30:00;6.45;;;1.25;;
77984;SDS011;67177;47.240;-1.546;2023-03-14T00:32:26;6.83;;;1.00;;
77984;SDS011;67177;47.240;-1.546;2023-03-14T00:34:51;8.75;;;1.33;;
77984;SDS011;67177;47.240;-1.546;2023-03-14T00:37:17;9.40;;;1.20;;
77984;SDS011;67177;47.240;-1.546;2023-03-14T00:39:43;8.70;;;1.00;;
77984;SDS011;67177;47.240;-1.546;2023-03-14T00:42:08;6.80;;;0.97;;
77984;SDS011;67177;47.240;-1.546;2023-03-14T00:44:34;6.70;;;1.02;;
77984;SDS011;67177;47.240;-1.546;2023-03-14T00:47:00;7.83;;;1.00;;
77984;SDS011;67177;47.240;-1.546;2023-03-14T00:49:25;10.57;;;1.70;;
77984;SDS011;67177;47.240;-1.546;2023-03-14T00:51:51;11.23;;;1.57;;
77984;SDS011;67177;47.240;-1.546;2023-03-14T00:54:18;13.98;;;2.35;;
77984;SDS011;67177;47.240;-1.546;2023-03-14T00:56:44;20.55;;;2.38;;
77984;SDS011;67177;47.240;-1.546;2023-03-14T00:59:10;15.70;;;2.77;;
77984;SDS011;67177;47.240;-1.546;2023-03-14T01:01:36;13.88;;;2.05;;
77984;SDS011;67177;47.240;-1.546;2023-03-14T01:04:02;15.33;;;2.43;;
77984;SDS011;67177;47.240;-1.546;2023-03-14T01:06:28;14.40;;;2.22;;
77984;SDS011;67177;47.240;-1.546;2023-03-14T01:08:55;17.98;;;2.65;;
77984;SDS011;67177;47.240;-1.546;2023-03-14T01:11:29;20.93;;;3.00;;
77984;SDS011;67177;47.240;-1.546;2023-03-14T01:13:56;14.68;;;2.30;;
77984;SDS011;67177;47.240;-1.546;2023-03-14T01:16:23;19.05;;;2.65;;
77984;SDS011;67177;47.240;-1.546;2023-03-14T01:18:51;12.05;;;2.22;;
77984;SDS011;67177;47.240;-1.546;2023-03-14T01:21:18;15.00;;;2.33;;
77984;SDS011;67177;47.240;-1.546;2023-03-14T01:23:45;14.20;;;2.38;;
77984;SDS011;67177;47.240;-1.546;2023-03-14T01:26:13;15.20;;;2.63;;
77984;SDS011;67177;47.240;-1.546;2023-03-14T01:28:40;13.88;;;2.10;;
77984;SDS011;67177;47.240;-1.546;2023-03-14T01:31:06;16.07;;;2.37;;
77984;SDS011;67177;47.240;-1.546;2023-03-14T01:33:33;17.88;;;2.08;;
77984;SDS011;67177;47.240;-1.546;2023-03-14T01:35:59;12.43;;;2.03;;
77984;SDS011;67177;47.240;-1.546;2023-03-14T01:38:27;17.93;;;2.17;;
77984;SDS011;67177;47.240;-1.546;2023-03-14T01:41:00;13.88;;;1.95;;
77984;SDS011;67177;47.240;-1.546;2023-03-14T01:43:26;11.55;;;2.20;;
77984;SDS011;67177;47.240;-1.546;2023-03-14T01:51:20;15.23;;;2.23;;
77984;SDS011;67177;47.240;-1.546;2023-03-14T01:53:50;12.48;;;1.85;;
77984;SDS011;67177;47.240;-1.546;2023-03-14T01:56:20;11.65;;;1.95;;
77984;SDS011;67177;47.240;-1.546;2023-03-14T01:58:48;9.60;;;1.48;;
77984;SDS011;67177;47.240;-1.546;2023-03-14T02:01:16;10.63;;;1.90;;
77984;SDS011;67177;47.240;-1.546;2023-03-14T02:03:49;12.47;;;1.60;;
77984;SDS011;67177;47.240;-1.546;2023-03-14T02:06:19;12.13;;;1.60;;
77984;SDS011;67177;47.240;-1.546;2023-03-14T02:08:49;12.02;;;2.08;;
77984;SDS011;67177;47.240;-1.546;2023-03-14T02:11:16;10.18;;;1.50;;
77984;SDS011;67177;47.240;-1.546;2023-03-14T02:13:43;9.07;;;1.40;;
77984;SDS011;67177;47.240;-1.546;2023-03-14T02:16:09;12.47;;;1.67;;
77984;SDS011;67177;47.240;-1.546;2023-03-14T02:18:35;10.18;;;1.80;;
77984;SDS011;67177;47.240;-1.546;2023-03-14T02:29:30;9.77;;;1.40;;
77984;SDS011;67177;47.240;-1.546;2023-03-14T02:31:58;14.75;;;1.70;;
77984;SDS011;67177;47.240;-1.546;2023-03-14T02:34:24;8.57;;;1.38;;
77984;SDS011;67177;47.240;-1.546;2023-03-14T02:36:50;9.23;;;1.33;;
77984;SDS011;67177;47.240;-1.546;2023-03-14T02:39:21;9.25;;;1.85;;
77984;SDS011;67177;47.240;-1.546;2023-03-14T02:41:53;9.05;;;1.45;;
77984;SDS011;67177;47.240;-1.546;2023-03-14T02:44:19;9.47;;;1.63;;
77984;SDS011;67177;47.240;-1.546;2023-03-14T02:46:44;12.82;;;2.00;;
77984;SDS011;67177;47.240;-1.546;2023-03-14T02:49:10;8.40;;;1.57;;
77984;SDS011;67177;47.240;-1.546;2023-03-14T02:51:38;13.25;;;1.58;;
77984;SDS011;67177;47.240;-1.546;2023-03-14T02:54:06;9.07;;;1.50;;
77984;SDS011;67177;47.240;-1.546;2023-03-14T02:56:32;11.77;;;2.38;;
77984;SDS011;67177;47.240;-1.546;2023-03-14T02:58:58;9.20;;;1.50;;
77984;SDS011;67177;47.240;-1.546;2023-03-14T03:01:23;9.80;;;1.67;;
77984;SDS011;67177;47.240;-1.546;2023-03-14T03:03:50;10.82;;;2.00;;
77984;SDS011;67177;47.240;-1.546;2023-03-14T03:06:15;11.63;;;2.03;;
77984;SDS011;67177;47.240;-1.546;2023-03-14T03:08:41;10.80;;;1.60;;
77984;SDS011;67177;47.240;-1.546;2023-03-14T03:11:07;12.32;;;1.70;;
77984;SDS011;67177;47.240;-1.546;2023-03-14T03:13:33;12.07;;;2.00;;
77984;SDS011;67177;47.240;-1.546;2023-03-14T03:15:59;11.45;;;1.58;;
77984;SDS011;67177;47.240;-1.546;2023-03-14T03:18:24;10.23;;;2.13;;
77984;SDS011;67177;47.240;-1.546;2023-03-14T03:20:50;12.70;;;1.70;;
77984;SDS011;67177;47.240;-1.546;2023-03-14T03:23:16;12.07;;;2.00;;
77984;SDS011;67177;47.240;-1.546;2023-03-14T03:25:42;10.43;;;1.77;;
77984;SDS011;67177;47.240;-1.546;2023-03-14T03:28:12;14.13;;;2.07;;
77984;SDS011;67177;47.240;-1.546;2023-03-14T03:30:38;12.15;;;1.90;;
77984;SDS011;67177;47.240;-1.546;2023-03-14T03:33:05;13.55;;;1.92;;
77984;SDS011;67177;47.240;-1.546;2023-03-14T03:35:30;18.63;;;2.57;;
77984;SDS011;67177;47.240;-1.546;2023-03-14T03:37:56;13.75;;;2.05;;
77984;SDS011;67177;47.240;-1.546;2023-03-14T03:40:22;13.17;;;2.33;;
77984;SDS011;67177;47.240;-1.546;2023-03-14T03:42:47;14.00;;;1.90;;
77984;SDS011;67177;47.240;-1.546;2023-03-14T03:45:13;14.33;;;2.20;;
77984;SDS011;67177;47.240;-1.546;2023-03-14T03:47:39;13.38;;;2.70;;
77984;SDS011;67177;47.240;-1.546;2023-03-14T03:50:05;13.37;;;2.20;;
77984;SDS011;67177;47.240;-1.546;2023-03-14T03:52:31;16.05;;;2.38;;
77984;SDS011;67177;47.240;-1.546;2023-03-14T03:54:56;16.70;;;2.30;;
77984;SDS011;67177;47.240;-1.546;2023-03-14T03:57:22;15.65;;;2.50;;
77984;SDS011;67177;47.240;-1.546;2023-03-14T03:59:48;15.63;;;2.23;;
77984;SDS011;67177;47.240;-1.546;2023-03-14T04:02:13;15.35;;;2.20;;
77984;SDS011;67177;47.240;-1.546;2023-03-14T04:04:39;13.23;;;2.10;;
77984;SDS011;67177;47.240;-1.546;2023-03-14T04:07:05;13.50;;;2.47;;
77984;SDS011;67177;47.240;-1.546;2023-03-14T04:09:31;10.05;;;1.98;;
77984;SDS011;67177;47.240;-1.546;2023-03-14T04:11:56;11.20;;;2.00;;
77984;SDS011;67177;47.240;-1.546;2023-03-14T04:14:22;12.90;;;2.28;;
77984;SDS011;67177;47.240;-1.546;2023-03-14T04:16:48;12.20;;;2.33;;
77984;SDS011;67177;47.240;-1.546;2023-03-14T04:19:13;13.35;;;1.90;;
77984;SDS011;67177;47.240;-1.546;2023-03-14T04:21:39;17.13;;;2.20;;
77984;SDS011;67177;47.240;-1.546;2023-03-14T04:24:09;14.50;;;2.40;;
77984;SDS011;67177;47.240;-1.546;2023-03-14T04:26:35;15.65;;;2.50;;
77984;SDS011;67177;47.240;-1.546;2023-03-14T04:29:00;14.27;;;2.60;;
77984;SDS011;67177;47.240;-1.546;2023-03-14T04:31:27;14.63;;;2.00;;
77984;SDS011;67177;47.240;-1.546;2023-03-14T04:33:53;14.55;;;1.92;;
77984;SDS011;67177;47.240;-1.546;2023-03-14T04:36:19;12.65;;;2.15;;
77984;SDS011;67177;47.240;-1.546;2023-03-14T04:38:45;12.93;;;2.20;;
77984;SDS011;67177;47.240;-1.546;2023-03-14T04:41:10;12.55;;;1.77;;
77984;SDS011;67177;47.240;-1.546;2023-03-14T04:43:36;10.33;;;1.77;;
77984;SDS011;67177;47.240;-1.546;2023-03-14T04:46:02;12.93;;;1.77;;
77984;SDS011;67177;47.240;-1.546;2023-03-14T04:48:28;10.60;;;1.70;;
77984;SDS011;67177;47.240;-1.546;2023-03-14T04:50:53;14.15;;;2.47;;
77984;SDS011;67177;47.240;-1.546;2023-03-14T04:53:19;9.35;;;1.30;;
77984;SDS011;67177;47.240;-1.546;2023-03-14T04:55:52;14.53;;;2.40;;
77984;SDS011;67177;47.240;-1.546;2023-03-14T04:58:19;14.07;;;1.80;;
77984;SDS011;67177;47.240;-1.546;2023-03-14T05:00:47;11.05;;;1.45;;
77984;SDS011;67177;47.240;-1.546;2023-03-14T05:03:16;12.57;;;1.83;;
77984;SDS011;67177;47.240;-1.546;2023-03-14T05:05:43;10.68;;;1.75;;
77984;SDS011;67177;47.240;-1.546;2023-03-14T05:08:09;9.27;;;1.58;;
77984;SDS011;67177;47.240;-1.546;2023-03-14T05:10:35;12.52;;;1.70;;
77984;SDS011;67177;47.240;-1.546;2023-03-14T05:13:01;10.17;;;1.87;;
77984;SDS011;67177;47.240;-1.546;2023-03-14T05:15:27;9.65;;;1.70;;
77984;SDS011;67177;47.240;-1.546;2023-03-14T05:17:52;12.90;;;1.70;;
77984;SDS011;67177;47.240;-1.546;2023-03-14T05:20:19;12.45;;;1.75;;
77984;SDS011;67177;47.240;-1.546;2023-03-14T05:22:45;11.52;;;1.65;;
77984;SDS011;67177;47.240;-1.546;2023-03-14T05:25:11;8.80;;;1.40;;
77984;SDS011;67177;47.240;-1.546;2023-03-14T05:27:37;9.55;;;1.35;;
77984;SDS011;67177;47.240;-1.546;2023-03-14T05:30:03;7.57;;;1.67;;
77984;SDS011;67177;47.240;-1.546;2023-03-14T05:32:30;9.97;;;1.93;;
77984;SDS011;67177;47.240;-1.546;2023-03-14T05:34:56;10.70;;;2.00;;
77984;SDS011;67177;47.240;-1.546;2023-03-14T05:37:24;13.50;;;1.67;;
77984;SDS011;67177;47.240;-1.546;2023-03-14T05:39:51;9.25;;;1.73;;
77984;SDS011;67177;47.240;-1.546;2023-03-14T05:42:16;9.60;;;1.73;;
77984;SDS011;67177;47.240;-1.546;2023-03-14T05:44:42;9.75;;;1.77;;
77984;SDS011;67177;47.240;-1.546;2023-03-14T05:47:08;10.27;;;1.77;;
77984;SDS011;67177;47.240;-1.546;2023-03-14T05:49:34;7.40;;;1.92;;
77984;SDS011;67177;47.240;-1.546;2023-03-14T05:52:00;7.40;;;2.10;;
77984;SDS011;67177;47.240;-1.546;2023-03-14T05:54:25;8.07;;;2.03;;
77984;SDS011;67177;47.240;-1.546;2023-03-14T05:56:51;10.10;;;2.27;;
77984;SDS011;67177;47.240;-1.546;2023-03-14T05:59:17;7.00;;;1.88;;
77984;SDS011;67177;47.240;-1.546;2023-03-14T06:01:43;9.27;;;1.60;;
77984;SDS011;67177;47.240;-1.546;2023-03-14T06:04:08;5.70;;;1.55;;
77984;SDS011;67177;47.240;-1.546;2023-03-14T06:06:34;10.40;;;2.00;;
77984;SDS011;67177;47.240;-1.546;2023-03-14T06:09:00;8.88;;;1.80;;
77984;SDS011;67177;47.240;-1.546;2023-03-14T06:11:25;9.77;;;2.60;;
77984;SDS011;67177;47.240;-1.546;2023-03-14T06:13:51;15.93;;;5.20;;
77984;SDS011;67177;47.240;-1.546;2023-03-14T06:16:17;14.40;;;4.17;;
77984;SDS011;67177;47.240;-1.546;2023-03-14T06:18:42;11.70;;;3.10;;
77984;SDS011;67177;47.240;-1.546;2023-03-14T06:21:08;9.75;;;2.55;;
77984;SDS011;67177;47.240;-1.546;2023-03-14T06:23:34;8.70;;;1.90;;
77984;SDS011;67177;47.240;-1.546;2023-03-14T06:25:59;8.65;;;1.85;;
77984;SDS011;67177;47.240;-1.546;2023-03-14T06:28:26;13.25;;;2.70;;
77984;SDS011;67177;47.240;-1.546;2023-03-14T06:30:51;10.07;;;2.60;;
77984;SDS011;67177;47.240;-1.546;2023-03-14T06:33:17;12.43;;;2.55;;
77984;SDS011;67177;47.240;-1.546;2023-03-14T06:35:43;11.37;;;2.80;;
77984;SDS011;67177;47.240;-1.546;2023-03-14T06:38:08;12.00;;;2.50;;
77984;SDS011;67177;47.240;-1.546;2023-03-14T06:40:34;7.43;;;2.30;;
77984;SDS011;67177;47.240;-1.546;2023-03-14T06:43:00;11.82;;;2.40;;
77984;SDS011;67177;47.240;-1.546;2023-03-14T06:45:25;9.27;;;2.63;;
77984;SDS011;67177;47.240;-1.546;2023-03-14T06:47:51;15.30;;;4.27;;
77984;SDS011;67177;47.240;-1.546;2023-03-14T06:50:17;14.38;;;4.50;;
77984;SDS011;67177;47.240;-1.546;2023-03-14T06:52:42;11.17;;;3.53;;
77984;SDS011;67177;47.240;-1.546;2023-03-14T06:55:12;10.32;;;2.22;;
77984;SDS011;67177;47.240;-1.546;2023-03-14T06:57:41;9.73;;;1.98;;
77984;SDS011;67177;47.240;-1.546;2023-03-14T07:00:09;10.80;;;2.30;;
77984;SDS011;67177;47.240;-1.546;2023-03-14T07:02:35;6.53;;;1.30;;
77984;SDS011;67177;47.240;-1.546;2023-03-14T07:05:01;15.35;;;2.83;;
77984;SDS011;67177;47.240;-1.546;2023-03-14T07:07:28;13.48;;;3.58;;
77984;SDS011;67177;47.240;-1.546;2023-03-14T07:09:53;16.43;;;6.10;;
77984;SDS011;67177;47.240;-1.546;2023-03-14T07:12:19;11.77;;;4.80;;
77984;SDS011;67177;47.240;-1.546;2023-03-14T07:14:45;12.67;;;4.43;;
77984;SDS011;67177;47.240;-1.546;2023-03-14T07:17:11;10.88;;;3.60;;
77984;SDS011;67177;47.240;-1.546;2023-03-14T07:19:36;9.67;;;2.67;;
77984;SDS011;67177;47.240;-1.546;2023-03-14T07:22:03;9.10;;;2.08;;
77984;SDS011;67177;47.240;-1.546;2023-03-14T07:24:31;25.15;;;11.75;;
77984;SDS011;67177;47.240;-1.546;2023-03-14T07:26:57;36.73;;;19.67;;
77984;SDS011;67177;47.240;-1.546;2023-03-14T07:29:23;28.05;;;13.68;;
77984;SDS011;67177;47.240;-1.546;2023-03-14T07:31:48;17.37;;;6.97;;
77984;SDS011;67177;47.240;-1.546;2023-03-14T07:34:14;11.20;;;4.28;;
77984;SDS011;67177;47.240;-1.546;2023-03-14T07:36:40;9.77;;;3.47;;
77984;SDS011;67177;47.240;-1.546;2023-03-14T07:39:06;11.80;;;2.70;;
77984;SDS011;67177;47.240;-1.546;2023-03-14T07:41:31;7.17;;;1.93;;
77984;SDS011;67177;47.240;-1.546;2023-03-14T07:43:57;9.50;;;2.00;;
77984;SDS011;67177;47.240;-1.546;2023-03-14T07:46:23;11.70;;;2.30;;
77984;SDS011;67177;47.240;-1.546;2023-03-14T07:48:49;10.75;;;2.53;;
77984;SDS011;67177;47.240;-1.546;2023-03-14T07:51:14;11.07;;;2.30;;
77984;SDS011;67177;47.240;-1.546;2023-03-14T07:53:40;11.98;;;2.20;;
77984;SDS011;67177;47.240;-1.546;2023-03-14T07:56:08;12.40;;;2.30;;
77984;SDS011;67177;47.240;-1.546;2023-03-14T07:58:33;12.20;;;2.13;;
77984;SDS011;67177;47.240;-1.546;2023-03-14T08:00:59;10.60;;;3.72;;
77984;SDS011;67177;47.240;-1.546;2023-03-14T08:03:25;12.63;;;5.10;;
77984;SDS011;67177;47.240;-1.546;2023-03-14T08:05:51;13.43;;;3.73;;
77984;SDS011;67177;47.240;-1.546;2023-03-14T08:08:17;10.32;;;2.45;;
77984;SDS011;67177;47.240;-1.546;2023-03-14T08:10:42;8.93;;;1.80;;
77984;SDS011;67177;47.240;-1.546;2023-03-14T08:13:08;10.25;;;1.70;;
77984;SDS011;67177;47.240;-1.546;2023-03-14T08:15:35;8.97;;;1.70;;
77984;SDS011;67177;47.240;-1.546;2023-03-14T08:18:02;8.40;;;1.60;;
77984;SDS011;67177;47.240;-1.546;2023-03-14T08:20:28;7.85;;;1.55;;
77984;SDS011;67177;47.240;-1.546;2023-03-14T08:22:58;7.18;;;1.48;;
77984;SDS011;67177;47.240;-1.546;2023-03-14T08:25:24;6.68;;;1.10;;
77984;SDS011;67177;47.240;-1.546;2023-03-14T08:27:51;9.00;;;1.90;;
77984;SDS011;67177;47.240;-1.546;2023-03-14T08:30:17;6.85;;;1.60;;
77984;SDS011;67177;47.240;-1.546;2023-03-14T08:32:43;9.05;;;1.27;;
77984;SDS011;67177;47.240;-1.546;2023-03-14T08:35:09;6.47;;;1.07;;
77984;SDS011;67177;47.240;-1.546;2023-03-14T08:37:35;4.93;;;0.95;;
77984;SDS011;67177;47.240;-1.546;2023-03-14T08:40:02;6.72;;;0.95;;
77984;SDS011;67177;47.240;-1.546;2023-03-14T08:42:34;7.13;;;1.20;;
77984;SDS011;67177;47.240;-1.546;2023-03-14T08:45:00;7.20;;;1.63;;
77984;SDS011;67177;47.240;-1.546;2023-03-14T08:47:25;10.18;;;1.27;;
77984;SDS011;67177;47.240;-1.546;2023-03-14T08:49:51;9.47;;;1.17;;
77984;SDS011;67177;47.240;-1.546;2023-03-14T08:52:17;7.43;;;1.50;;
77984;SDS011;67177;47.240;-1.546;2023-03-14T08:54:45;8.10;;;1.20;;
77984;SDS011;67177;47.240;-1.546;2023-03-14T08:57:11;6.38;;;1.10;;
77984;SDS011;67177;47.240;-1.546;2023-03-14T08:59:37;6.60;;;1.47;;
77984;SDS011;67177;47.240;-1.546;2023-03-14T09:02:03;7.70;;;1.40;;
77984;SDS011;67177;47.240;-1.546;2023-03-14T09:04:30;7.43;;;1.33;;
77984;SDS011;67177;47.240;-1.546;2023-03-14T09:06:56;8.00;;;1.30;;
77984;SDS011;67177;47.240;-1.546;2023-03-14T09:09:23;5.90;;;1.35;;
77984;SDS011;67177;47.240;-1.546;2023-03-14T09:11:49;7.65;;;1.70;;
77984;SDS011;67177;47.240;-1.546;2023-03-14T09:14:15;8.30;;;1.40;;
77984;SDS011;67177;47.240;-1.546;2023-03-14T09:16:41;9.50;;;1.60;;
77984;SDS011;67177;47.240;-1.546;2023-03-14T09:19:06;9.50;;;1.70;;
77984;SDS011;67177;47.240;-1.546;2023-03-14T09:21:32;8.75;;;1.52;;
77984;SDS011;67177;47.240;-1.546;2023-03-14T09:23:58;7.93;;;1.43;;
77984;SDS011;67177;47.240;-1.546;2023-03-14T09:26:23;7.22;;;1.30;;
77984;SDS011;67177;47.240;-1.546;2023-03-14T09:28:49;7.87;;;1.50;;
77984;SDS011;67177;47.240;-1.546;2023-03-14T09:31:15;7.97;;;1.80;;
77984;SDS011;67177;47.240;-1.546;2023-03-14T09:33:41;5.85;;;1.23;;
77984;SDS011;67177;47.240;-1.546;2023-03-14T09:36:06;8.63;;;1.40;;
77984;SDS011;67177;47.240;-1.546;2023-03-14T09:38:34;6.73;;;1.50;;
77984;SDS011;67177;47.240;-1.546;2023-03-14T09:41:00;8.10;;;1.45;;
77984;SDS011;67177;47.240;-1.546;2023-03-14T09:43:29;9.25;;;1.50;;
77984;SDS011;67177;47.240;-1.546;2023-03-14T09:45:57;9.75;;;1.48;;
77984;SDS011;67177;47.240;-1.546;2023-03-14T09:48:29;6.40;;;1.30;;
77984;SDS011;67177;47.240;-1.546;2023-03-14T09:50:57;7.13;;;1.30;;
77984;SDS011;67177;47.240;-1.546;2023-03-14T09:53:28;9.32;;;1.40;;
77984;SDS011;67177;47.240;-1.546;2023-03-14T09:56:11;8.18;;;1.70;;
77984;SDS011;67177;47.240;-1.546;2023-03-14T09:58:44;6.90;;;1.17;;
77984;SDS011;67177;47.240;-1.546;2023-03-14T10:01:15;13.00;;;2.13;;
77984;SDS011;67177;47.240;-1.546;2023-03-14T10:03:45;10.67;;;1.30;;
77984;SDS011;67177;47.240;-1.546;2023-03-14T10:06:13;6.82;;;1.20;;
77984;SDS011;67177;47.240;-1.546;2023-03-14T10:08:40;9.10;;;1.30;;
77984;SDS011;67177;47.240;-1.546;2023-03-14T10:11:10;11.02;;;1.40;;
77984;SDS011;67177;47.240;-1.546;2023-03-14T10:16:30;7.17;;;1.17;;
77984;SDS011;67177;47.240;-1.546;2023-03-14T10:19:04;8.77;;;1.42;;
77984;SDS011;67177;47.240;-1.546;2023-03-14T10:21:36;8.15;;;1.55;;
77984;SDS011;67177;47.240;-1.546;2023-03-14T10:24:32;6.40;;;1.30;;
77984;SDS011;67177;47.240;-1.546;2023-03-14T10:27:05;8.52;;;1.25;;
77984;SDS011;67177;47.240;-1.546;2023-03-14T10:29:53;6.83;;;1.50;;
77984;SDS011;67177;47.240;-1.546;2023-03-14T10:32:21;9.20;;;1.55;;
77984;SDS011;67177;47.240;-1.546;2023-03-14T10:37:50;8.05;;;1.08;;
77984;SDS011;67177;47.240;-1.546;2023-03-14T10:40:33;6.65;;;1.10;;
77984;SDS011;67177;47.240;-1.546;2023-03-14T10:43:04;6.37;;;1.20;;
77984;SDS011;67177;47.240;-1.546;2023-03-14T10:45:36;6.90;;;1.65;;
77984;SDS011;67177;47.240;-1.546;2023-03-14T10:48:15;7.18;;;1.40;;
77984;SDS011;67177;47.240;-1.546;2023-03-14T10:51:04;11.35;;;1.67;;
77984;SDS011;67177;47.240;-1.546;2023-03-14T10:53:43;7.70;;;1.80;;
77984;SDS011;67177;47.240;-1.546;2023-03-14T10:56:16;9.13;;;1.60;;
77984;SDS011;67177;47.240;-1.546;2023-03-14T10:58:49;7.13;;;1.30;;
77984;SDS011;67177;47.240;-1.546;2023-03-14T11:04:29;8.32;;;1.40;;
77984;SDS011;67177;47.240;-1.546;2023-03-14T11:07:02;7.72;;;1.60;;
77984;SDS011;67177;47.240;-1.546;2023-03-14T11:15:05;9.90;;;3.67;;
77984;SDS011;67177;47.240;-1.546;2023-03-14T11:20:54;11.43;;;1.88;;
77984;SDS011;67177;47.240;-1.546;2023-03-14T11:28:52;5.85;;;1.20;;
77984;SDS011;67177;47.240;-1.546;2023-03-14T11:31:25;7.80;;;1.20;;
77984;SDS011;67177;47.240;-1.546;2023-03-14T11:33:56;5.50;;;0.90;;
77984;SDS011;67177;47.240;-1.546;2023-03-14T11:36:38;9.23;;;1.10;;
77984;SDS011;67177;47.240;-1.546;2023-03-14T11:39:16;7.57;;;1.08;;
77984;SDS011;67177;47.240;-1.546;2023-03-14T11:41:47;8.82;;;1.40;;
77984;SDS011;67177;47.240;-1.546;2023-03-14T11:44:18;7.20;;;1.33;;
77984;SDS011;67177;47.240;-1.546;2023-03-14T11:47:34;6.80;;;1.17;;
77984;SDS011;67177;47.240;-1.546;2023-03-14T11:52:28;6.60;;;1.23;;
77984;SDS011;67177;47.240;-1.546;2023-03-14T11:57:36;6.75;;;1.25;;
77984;SDS011;67177;47.240;-1.546;2023-03-14T12:00:16;6.68;;;1.25;;
77984;SDS011;67177;47.240;-1.546;2023-03-14T12:02:58;6.77;;;1.20;;
77984;SDS011;67177;47.240;-1.546;2023-03-14T12:05:50;5.90;;;1.13;;
77984;SDS011;67177;47.240;-1.546;2023-03-14T12:11:13;8.57;;;1.83;;
77984;SDS011;67177;47.240;-1.546;2023-03-14T12:13:58;6.68;;;1.48;;
77984;SDS011;67177;47.240;-1.546;2023-03-14T12:16:43;8.63;;;1.50;;
77984;SDS011;67177;47.240;-1.546;2023-03-14T12:19:13;7.97;;;1.30;;
77984;SDS011;67177;47.240;-1.546;2023-03-14T12:21:49;7.25;;;1.30;;
77984;SDS011;67177;47.240;-1.546;2023-03-14T12:24:19;8.95;;;1.20;;
77984;SDS011;67177;47.240;-1.546;2023-03-14T12:26:55;8.85;;;1.73;;
77984;SDS011;67177;47.240;-1.546;2023-03-14T12:29:23;7.60;;;1.50;;
77984;SDS011;67177;47.240;-1.546;2023-03-14T12:34:46;8.68;;;1.45;;
77984;SDS011;67177;47.240;-1.546;2023-03-14T12:37:14;8.97;;;1.73;;
77984;SDS011;67177;47.240;-1.546;2023-03-14T12:42:38;8.05;;;1.45;;
77984;SDS011;67177;47.240;-1.546;2023-03-14T12:45:30;9.63;;;1.70;;
77984;SDS011;67177;47.240;-1.546;2023-03-14T12:50:53;10.37;;;1.70;;
77984;SDS011;67177;47.240;-1.546;2023-03-14T12:59:33;8.82;;;1.45;;
77984;SDS011;67177;47.240;-1.546;2023-03-14T13:02:10;6.63;;;1.33;;
77984;SDS011;67177;47.240;-1.546;2023-03-14T13:04:46;11.23;;;1.87;;
77984;SDS011;67177;47.240;-1.546;2023-03-14T13:15:44;8.07;;;1.63;;
77984;SDS011;67177;47.240;-1.546;2023-03-14T13:18:12;8.47;;;1.80;;
77984;SDS011;67177;47.240;-1.546;2023-03-14T13:20:40;7.28;;;1.40;;
77984;SDS011;67177;47.240;-1.546;2023-03-14T13:23:19;8.13;;;1.40;;
77984;SDS011;67177;47.240;-1.546;2023-03-14T13:25:46;9.00;;;1.80;;
77984;SDS011;67177;47.240;-1.546;2023-03-14T13:28:13;7.60;;;1.65;;
77984;SDS011;67177;47.240;-1.546;2023-03-14T13:30:41;10.93;;;1.80;;
77984;SDS011;67177;47.240;-1.546;2023-03-14T13:33:15;9.65;;;1.85;;
77984;SDS011;67177;47.240;-1.546;2023-03-14T13:35:46;9.98;;;1.50;;
77984;SDS011;67177;47.240;-1.546;2023-03-14T13:38:24;10.05;;;1.30;;
77984;SDS011;67177;47.240;-1.546;2023-03-14T13:40:53;7.72;;;1.30;;
77984;SDS011;67177;47.240;-1.546;2023-03-14T13:43:25;8.17;;;1.53;;
77984;SDS011;67177;47.240;-1.546;2023-03-14T13:48:28;8.68;;;1.30;;
77984;SDS011;67177;47.240;-1.546;2023-03-14T13:53:24;8.52;;;1.30;;
77984;SDS011;67177;47.240;-1.546;2023-03-14T13:55:50;10.07;;;1.60;;
77984;SDS011;67177;47.240;-1.546;2023-03-14T13:58:35;9.93;;;1.75;;
77984;SDS011;67177;47.240;-1.546;2023-03-14T14:01:45;10.63;;;1.65;;
77984;SDS011;67177;47.240;-1.546;2023-03-14T14:03:56;10.40;;;1.50;;
77984;SDS011;67177;47.240;-1.546;2023-03-14T14:06:36;10.30;;;2.40;;
77984;SDS011;67177;47.240;-1.546;2023-03-14T14:09:17;8.97;;;2.63;;
77984;SDS011;67177;47.240;-1.546;2023-03-14T14:11:48;12.32;;;3.70;;
77984;SDS011;67177;47.240;-1.546;2023-03-14T14:14:26;10.20;;;2.50;;
77984;SDS011;67177;47.240;-1.546;2023-03-14T14:17:05;9.02;;;1.88;;
77984;SDS011;67177;47.240;-1.546;2023-03-14T14:19:34;10.05;;;1.60;;
77984;SDS011;67177;47.240;-1.546;2023-03-14T14:22:01;10.67;;;2.00;;
77984;SDS011;67177;47.240;-1.546;2023-03-14T14:24:30;11.07;;;2.58;;
77984;SDS011;67177;47.240;-1.546;2023-03-14T14:27:01;12.80;;;3.05;;
77984;SDS011;67177;47.240;-1.546;2023-03-14T14:29:34;10.57;;;1.88;;
77984;SDS011;67177;47.240;-1.546;2023-03-14T14:32:09;9.55;;;1.80;;
77984;SDS011;67177;47.240;-1.546;2023-03-14T14:34:40;7.10;;;1.50;;
77984;SDS011;67177;47.240;-1.546;2023-03-14T14:37:23;9.20;;;1.50;;
77984;SDS011;67177;47.240;-1.546;2023-03-14T14:39:53;7.30;;;1.38;;
77984;SDS011;67177;47.240;-1.546;2023-03-14T14:42:21;11.23;;;1.85;;
77984;SDS011;67177;47.240;-1.546;2023-03-14T14:44:55;7.97;;;1.50;;
77984;SDS011;67177;47.240;-1.546;2023-03-14T14:47:22;6.60;;;1.37;;
77984;SDS011;67177;47.240;-1.546;2023-03-14T14:49:50;9.85;;;1.48;;
77984;SDS011;67177;47.240;-1.546;2023-03-14T14:52:22;11.45;;;1.90;;
77984;SDS011;67177;47.240;-1.546;2023-03-14T14:55:02;11.65;;;1.90;;
77984;SDS011;67177;47.240;-1.546;2023-03-14T14:57:30;9.10;;;1.30;;
77984;SDS011;67177;47.240;-1.546;2023-03-14T15:00:02;8.93;;;1.53;;
77984;SDS011;67177;47.240;-1.546;2023-03-14T15:02:35;8.32;;;1.48;;
77984;SDS011;67177;47.240;-1.546;2023-03-14T15:05:16;8.48;;;1.50;;
77984;SDS011;67177;47.240;-1.546;2023-03-14T15:07:49;11.00;;;1.77;;
77984;SDS011;67177;47.240;-1.546;2023-03-14T15:10:16;9.85;;;1.70;;
77984;SDS011;67177;47.240;-1.546;2023-03-14T15:12:44;8.60;;;1.67;;
77984;SDS011;67177;47.240;-1.546;2023-03-14T15:15:10;9.40;;;1.38;;
77984;SDS011;67177;47.240;-1.546;2023-03-14T15:17:37;11.32;;;1.50;;
77984;SDS011;67177;47.240;-1.546;2023-03-14T15:20:03;10.50;;;1.75;;
77984;SDS011;67177;47.240;-1.546;2023-03-14T15:22:32;9.37;;;1.50;;
77984;SDS011;67177;47.240;-1.546;2023-03-14T15:24:57;12.32;;;1.55;;
77984;SDS011;67177;47.240;-1.546;2023-03-14T15:27:23;7.88;;;1.60;;
77984;SDS011;67177;47.240;-1.546;2023-03-14T15:29:49;10.23;;;1.80;;
77984;SDS011;67177;47.240;-1.546;2023-03-14T15:32:16;9.70;;;1.60;;
77984;SDS011;67177;47.240;-1.546;2023-03-14T15:34:43;10.85;;;1.70;;
77984;SDS011;67177;47.240;-1.546;2023-03-14T15:37:12;8.40;;;1.90;;
77984;SDS011;67177;47.240;-1.546;2023-03-14T15:39:40;10.35;;;1.70;;
77984;SDS011;67177;47.240;-1.546;2023-03-14T15:42:09;11.60;;;2.10;;
77984;SDS011;67177;47.240;-1.546;2023-03-14T15:44:35;9.95;;;2.00;;
77984;SDS011;67177;47.240;-1.546;2023-03-14T15:47:01;7.23;;;1.30;;
77984;SDS011;67177;47.240;-1.546;2023-03-14T15:49:27;8.73;;;1.50;;